createdAt,value
2023-03-20T00:00:21.019Z,25.35
2023-03-20T00:02:49.273Z,25.37
2023-03-20T00:05:18.994Z,25.37
2023-03-20T00:07:46.324Z,25.35
2023-03-20T00:10:13.460Z,25.35
2023-03-20T00:12:41.201Z,25.35
2023-03-20T00:15:25.208Z,25.36
2023-03-20T00:17:54.314Z,25.33
2023-03-20T00:20:21.521Z,25.34
2023-03-20T00:22:50.245Z,25.33
2023-03-20T00:25:19.704Z,25.29
2023-03-20T00:27:47.309Z,25.27
2023-03-20T00:30:22.421Z,25.25
2023-03-20T00:32:53.489Z,25.21
2023-03-20T00:35:23.951Z,25.17
2023-03-20T00:37:52.451Z,25.17
2023-03-20T00:40:20.161Z,25.18
2023-03-20T00:42:49.468Z,25.16
2023-03-20T00:45:21.167Z,25.16
2023-03-20T00:47:50.136Z,25.16
2023-03-20T00:50:22.028Z,25.15
2023-03-20T00:52:49.643Z,25.14
2023-03-20T00:55:17.471Z,25.14
2023-03-20T00:57:48.000Z,25.14
2023-03-20T01:00:40.177Z,25.13
2023-03-20T01:03:13.213Z,25.12
2023-03-20T01:05:41.942Z,25.11
2023-03-20T01:08:16.679Z,25.11
2023-03-20T01:10:45.421Z,25.11
2023-03-20T01:13:19.016Z,25.09
2023-03-20T01:15:46.363Z,25.08
2023-03-20T01:18:14.015Z,25.09
2023-03-20T01:20:42.758Z,25.08
2023-03-20T01:23:10.377Z,25.08
2023-03-20T01:25:38.025Z,25.09
2023-03-20T01:28:14.066Z,25.06
2023-03-20T01:30:41.109Z,25.07
2023-03-20T01:33:13.874Z,25.06
2023-03-20T01:35:42.755Z,25.06
2023-03-20T01:38:15.553Z,25.06
2023-03-20T01:40:51.504Z,25.03
2023-03-20T01:43:21.082Z,25.03
2023-03-20T01:45:58.323Z,25.04
2023-03-20T01:48:32.330Z,25.03
2023-03-20T01:51:01.014Z,25.01
2023-03-20T01:53:29.656Z,25.01
2023-03-20T01:56:01.644Z,25.00
2023-03-20T01:58:48.571Z,24.99
2023-03-20T02:01:16.679Z,24.99
2023-03-20T02:03:49.856Z,24.99
2023-03-20T02:06:53.678Z,24.97
2023-03-20T02:09:31.619Z,24.96
2023-03-20T02:12:00.944Z,24.97
2023-03-20T02:14:28.551Z,24.95
2023-03-20T02:17:08.845Z,24.96
2023-03-20T02:19:51.603Z,24.95
2023-03-20T02:22:52.520Z,24.95
2023-03-20T02:25:58.286Z,24.93
2023-03-20T02:28:43.009Z,24.92
2023-03-20T02:31:48.772Z,24.91
2023-03-20T02:34:54.184Z,24.89
2023-03-20T02:37:48.631Z,24.91
2023-03-20T02:40:25.528Z,24.89
2023-03-20T02:43:01.052Z,24.89
2023-03-20T02:45:31.774Z,24.89
2023-03-20T02:48:22.647Z,24.88
2023-03-20T02:50:56.397Z,24.89
2023-03-20T02:53:36.348Z,24.87
2023-03-20T02:56:12.704Z,24.87
2023-03-20T02:58:46.349Z,24.87
2023-03-20T03:01:16.775Z,24.88
2023-03-20T03:03:49.344Z,24.88
2023-03-20T03:06:21.532Z,24.87
2023-03-20T03:08:54.148Z,24.87
2023-03-20T03:11:21.235Z,24.86
2023-03-20T03:13:55.024Z,24.86
2023-03-20T03:16:26.819Z,24.86
2023-03-20T03:19:03.805Z,24.86
2023-03-20T03:21:33.707Z,24.85
2023-03-20T03:24:02.756Z,24.85
2023-03-20T03:26:34.700Z,24.84
2023-03-20T03:29:07.793Z,24.84
2023-03-20T03:31:38.098Z,24.83
2023-03-20T03:34:05.758Z,24.82
2023-03-20T03:36:43.628Z,24.83
2023-03-20T03:39:22.641Z,24.82
2023-03-20T03:41:53.928Z,24.81
2023-03-20T03:44:27.418Z,24.79
2023-03-20T03:46:58.698Z,24.79
2023-03-20T03:49:31.227Z,24.79
2023-03-20T03:52:03.729Z,24.78
2023-03-20T03:54:38.383Z,24.79
2023-03-20T03:57:43.668Z,24.78
2023-03-20T04:00:19.016Z,24.78
2023-03-20T04:02:47.922Z,24.78
2023-03-20T04:05:16.756Z,24.77
2023-03-20T04:07:45.722Z,24.78
2023-03-20T04:10:14.629Z,24.78
2023-03-20T04:12:43.871Z,24.77
2023-03-20T04:15:12.214Z,24.76
2023-03-20T04:17:39.502Z,24.77
2023-03-20T04:20:09.689Z,24.75
2023-03-20T04:22:37.238Z,24.76
2023-03-20T04:25:09.549Z,24.76
2023-03-20T04:27:37.975Z,24.75
2023-03-20T04:30:13.047Z,24.75
2023-03-20T04:32:58.709Z,24.74
2023-03-20T04:35:34.071Z,24.75
2023-03-20T04:38:05.592Z,24.74
2023-03-20T04:40:34.935Z,24.74
2023-03-20T04:43:04.305Z,24.73
2023-03-20T04:45:31.323Z,24.73
2023-03-20T04:47:59.371Z,24.73
2023-03-20T04:50:27.195Z,24.72
2023-03-20T04:52:55.118Z,24.72
2023-03-20T04:55:22.795Z,24.72
2023-03-20T04:57:50.579Z,24.72
2023-03-20T05:00:19.614Z,24.71
2023-03-20T05:02:46.947Z,24.70
2023-03-20T05:05:15.523Z,24.70
2023-03-20T05:07:43.677Z,24.71
2023-03-20T05:10:16.067Z,24.70
2023-03-20T05:12:52.658Z,24.71
2023-03-20T05:15:29.386Z,24.71
2023-03-20T05:18:28.578Z,24.69
2023-03-20T05:21:31.043Z,24.67
2023-03-20T05:24:16.410Z,24.65
2023-03-20T05:27:03.792Z,24.66
2023-03-20T05:30:00.400Z,24.64
2023-03-20T05:32:44.006Z,24.65
2023-03-20T05:35:28.789Z,24.65
2023-03-20T05:38:17.185Z,24.64
2023-03-20T05:41:19.084Z,24.62
2023-03-20T05:44:21.358Z,24.63
2023-03-20T05:47:08.471Z,24.63
2023-03-20T05:49:59.823Z,24.67
2023-03-20T05:52:36.591Z,24.71
2023-03-20T05:55:18.387Z,24.76
2023-03-20T05:58:00.840Z,24.82
2023-03-20T06:00:48.022Z,24.86
2023-03-20T06:03:43.932Z,24.92
2023-03-20T06:06:17.140Z,24.98
2023-03-20T06:08:48.793Z,25.04
2023-03-20T06:11:16.536Z,25.10
2023-03-20T06:13:44.122Z,25.17
2023-03-20T06:16:12.130Z,25.22
2023-03-20T06:18:39.481Z,25.28
2023-03-20T06:21:08.389Z,25.32
2023-03-20T06:23:36.934Z,25.39
2023-03-20T06:26:05.367Z,25.44
2023-03-20T06:28:44.750Z,25.49
2023-03-20T06:31:11.802Z,25.55
2023-03-20T06:33:39.542Z,25.60
2023-03-20T06:36:07.265Z,25.63
2023-03-20T06:38:34.265Z,25.66
2023-03-20T06:41:08.924Z,25.69
2023-03-20T06:43:37.192Z,25.71
2023-03-20T06:46:05.045Z,25.71
2023-03-20T06:48:33.327Z,25.71
2023-03-20T06:51:05.452Z,25.72
2023-03-20T06:53:38.530Z,25.70
2023-03-20T06:56:11.607Z,25.70
2023-03-20T06:58:40.805Z,25.67
2023-03-20T07:01:10.290Z,25.64
2023-03-20T07:03:37.375Z,25.62
2023-03-20T07:06:05.428Z,25.59
2023-03-20T07:08:34.717Z,25.59
2023-03-20T07:11:02.502Z,25.59
2023-03-20T07:13:31.511Z,25.57
2023-03-20T07:16:05.405Z,25.56
2023-03-20T07:18:39.461Z,25.55
2023-03-20T07:21:08.042Z,25.55
2023-03-20T07:23:35.734Z,25.53
2023-03-20T07:26:03.477Z,25.50
2023-03-20T07:28:32.138Z,25.51
2023-03-20T07:31:27.569Z,25.49
2023-03-20T07:34:08.634Z,25.49
2023-03-20T07:36:35.869Z,25.47
2023-03-20T07:39:02.820Z,25.44
2023-03-20T07:41:31.278Z,25.43
2023-03-20T07:44:04.482Z,25.42
2023-03-20T07:46:34.403Z,25.40
2023-03-20T07:49:01.681Z,25.38
2023-03-20T07:51:28.561Z,25.36
2023-03-20T07:53:55.636Z,25.31
2023-03-20T07:56:22.715Z,25.26
2023-03-20T07:58:51.095Z,25.23
2023-03-20T08:01:19.660Z,25.22
2023-03-20T08:03:47.518Z,25.23
2023-03-20T08:06:14.564Z,25.23
2023-03-20T08:08:42.104Z,25.21
2023-03-20T08:11:09.037Z,25.22
2023-03-20T08:13:36.107Z,25.22
2023-03-20T08:16:03.218Z,25.22
2023-03-20T08:18:31.617Z,25.20
2023-03-20T08:20:58.562Z,25.19
2023-03-20T08:23:26.543Z,25.19
2023-03-20T08:25:54.334Z,25.16
2023-03-20T08:28:21.900Z,25.17
2023-03-20T08:30:49.324Z,25.16
2023-03-20T08:33:18.137Z,25.15
2023-03-20T08:35:56.055Z,25.14
2023-03-20T08:38:23.296Z,25.11
2023-03-20T08:40:50.293Z,25.11
2023-03-20T08:43:18.242Z,25.10
2023-03-20T08:45:45.344Z,25.10
2023-03-20T08:48:12.476Z,25.10
2023-03-20T08:50:40.077Z,25.08
2023-03-20T08:53:08.297Z,25.09
2023-03-20T08:55:35.597Z,25.07
2023-03-20T08:58:02.734Z,25.06
2023-03-20T09:00:29.713Z,25.05
2023-03-20T09:02:56.614Z,25.02
2023-03-20T09:05:23.858Z,25.02
2023-03-20T09:07:51.648Z,25.01
2023-03-20T09:10:20.235Z,25.01
2023-03-20T09:12:47.188Z,25.00
2023-03-20T09:15:14.216Z,24.99
2023-03-20T09:17:41.092Z,24.99
2023-03-20T09:20:09.280Z,24.98
2023-03-20T09:22:36.495Z,24.97
2023-03-20T09:25:03.760Z,24.96
2023-03-20T09:27:32.056Z,24.97
2023-03-20T09:29:59.048Z,24.96
2023-03-20T09:32:26.684Z,24.97
2023-03-20T09:34:56.854Z,24.96
2023-03-20T09:37:27.141Z,24.94
2023-03-20T09:39:57.159Z,24.94
2023-03-20T09:42:40.106Z,24.92
2023-03-20T09:45:12.293Z,24.91
2023-03-20T09:47:47.409Z,24.91
2023-03-20T09:50:25.260Z,24.90
2023-03-20T09:52:58.248Z,24.91
2023-03-20T09:55:32.380Z,24.89
2023-03-20T09:58:05.957Z,24.89
2023-03-20T10:00:36.221Z,24.89
2023-03-20T10:03:06.372Z,24.88
2023-03-20T10:05:38.582Z,24.88
2023-03-20T10:08:14.962Z,24.86
2023-03-20T10:10:57.387Z,24.87
2023-03-20T10:13:45.618Z,24.85
2023-03-20T10:16:19.792Z,24.84
2023-03-20T10:18:52.082Z,24.83
2023-03-20T10:21:26.695Z,24.84
2023-03-20T10:24:00.886Z,24.82
2023-03-20T10:26:30.112Z,24.83
2023-03-20T10:29:00.049Z,24.83
2023-03-20T10:31:37.326Z,24.83
2023-03-20T10:34:20.829Z,24.81
2023-03-20T10:36:58.902Z,24.80
2023-03-20T10:39:38.461Z,24.78
2023-03-20T10:42:13.900Z,24.79
2023-03-20T10:44:46.407Z,24.79
2023-03-20T10:47:19.053Z,24.79
2023-03-20T10:49:51.660Z,24.79
2023-03-20T10:52:22.627Z,24.79
2023-03-20T10:54:56.230Z,24.79
2023-03-20T10:57:25.094Z,24.78
2023-03-20T10:59:56.150Z,24.78
2023-03-20T11:02:27.823Z,24.77
2023-03-20T11:04:54.819Z,24.77
2023-03-20T11:07:25.746Z,24.75
2023-03-20T11:10:10.503Z,24.76
2023-03-20T11:12:39.863Z,24.75
2023-03-20T11:15:22.105Z,24.76
2023-03-20T11:17:57.103Z,24.74
2023-03-20T11:20:25.552Z,24.76
2023-03-20T11:22:58.966Z,24.75
2023-03-20T11:25:32.922Z,24.74
2023-03-20T11:28:36.166Z,24.74
2023-03-20T11:31:19.291Z,24.72
2023-03-20T11:33:53.543Z,24.70
2023-03-20T11:36:25.344Z,24.72
2023-03-20T11:39:01.428Z,24.74
2023-03-20T11:41:29.500Z,24.72
2023-03-20T11:43:56.404Z,24.73
2023-03-20T11:46:26.116Z,24.72
2023-03-20T11:49:21.037Z,24.72
2023-03-20T11:51:48.596Z,24.71
2023-03-20T11:54:18.844Z,24.71
2023-03-20T11:56:53.084Z,24.73
2023-03-20T11:59:20.852Z,24.72
2023-03-20T12:01:51.655Z,24.72
2023-03-20T12:04:20.671Z,24.72
2023-03-20T12:06:52.880Z,24.71
2023-03-20T12:09:33.734Z,24.71
2023-03-20T12:12:03.616Z,24.71
2023-03-20T12:14:43.395Z,24.71
2023-03-20T12:17:34.864Z,24.69
2023-03-20T12:20:14.018Z,24.67
2023-03-20T12:22:56.518Z,24.68
2023-03-20T12:25:26.171Z,24.67
2023-03-20T12:28:02.834Z,24.66
2023-03-20T12:30:38.488Z,24.67
2023-03-20T12:33:14.297Z,24.66
2023-03-20T12:35:47.372Z,24.68
2023-03-20T12:38:23.031Z,24.68
2023-03-20T12:40:55.766Z,24.67
2023-03-20T12:43:26.889Z,24.69
2023-03-20T12:46:01.975Z,24.67
2023-03-20T12:48:48.595Z,24.66
2023-03-20T12:51:22.771Z,24.67
2023-03-20T12:54:03.256Z,24.66
2023-03-20T12:56:51.629Z,24.67
2023-03-20T12:59:26.246Z,24.65
2023-03-20T13:01:58.547Z,24.66
2023-03-20T13:05:04.335Z,24.67
2023-03-20T13:07:48.126Z,24.65
2023-03-20T13:10:21.080Z,24.66
2023-03-20T13:13:01.826Z,24.67
2023-03-20T13:15:39.856Z,24.65
2023-03-20T13:18:12.798Z,24.67
2023-03-20T13:20:50.326Z,24.67
2023-03-20T13:23:27.575Z,24.66
2023-03-20T13:26:11.186Z,24.65
2023-03-20T13:28:44.773Z,24.65
2023-03-20T13:31:26.992Z,24.65
2023-03-20T13:34:01.089Z,24.66
2023-03-20T13:36:42.665Z,24.66
2023-03-20T13:39:13.852Z,24.67
2023-03-20T13:41:41.075Z,24.64
2023-03-20T13:44:12.118Z,24.63
2023-03-20T13:46:43.964Z,24.64
2023-03-20T13:49:16.699Z,24.63
2023-03-20T13:51:54.809Z,24.63
2023-03-20T13:54:38.217Z,24.62
2023-03-20T13:57:16.911Z,24.63
2023-03-20T14:00:06.562Z,24.63
2023-03-20T14:02:48.640Z,24.63
2023-03-20T14:05:20.265Z,24.63
2023-03-20T14:07:50.574Z,24.63
2023-03-20T14:10:37.408Z,24.63
2023-03-20T14:13:11.241Z,24.63
2023-03-20T14:15:40.499Z,24.62
2023-03-20T14:18:13.733Z,24.64
2023-03-20T14:20:42.260Z,24.65
2023-03-20T14:23:18.828Z,24.64
2023-03-20T14:25:47.625Z,24.64
2023-03-20T14:28:27.371Z,24.63
2023-03-20T14:31:13.043Z,24.64
2023-03-20T14:33:44.821Z,24.64
2023-03-20T14:36:19.348Z,24.65
2023-03-20T14:38:55.151Z,24.65
2023-03-20T14:41:29.257Z,24.65
2023-03-20T14:44:17.957Z,24.64
2023-03-20T14:46:51.971Z,24.64
2023-03-20T14:49:38.022Z,24.64
2023-03-20T14:52:29.570Z,24.64
2023-03-20T14:55:15.135Z,24.62
2023-03-20T14:57:55.502Z,24.62
2023-03-20T15:00:24.995Z,24.64
2023-03-20T15:02:54.149Z,24.61
2023-03-20T15:05:24.892Z,24.61
2023-03-20T15:07:52.692Z,24.62
2023-03-20T15:10:21.218Z,24.64
2023-03-20T15:12:48.760Z,24.62
2023-03-20T15:15:26.267Z,24.64
2023-03-20T15:17:53.317Z,24.65
2023-03-20T15:20:22.756Z,24.64
2023-03-20T15:22:51.278Z,24.66
2023-03-20T15:25:20.170Z,24.65
2023-03-20T15:27:49.831Z,24.64
2023-03-20T15:30:19.741Z,24.65
2023-03-20T15:32:48.290Z,24.65
2023-03-20T15:35:17.849Z,24.65
2023-03-20T15:37:46.961Z,24.65
2023-03-20T15:40:22.484Z,24.64
2023-03-20T15:42:54.649Z,24.64
2023-03-20T15:45:26.197Z,24.64
2023-03-20T15:48:00.011Z,24.64
2023-03-20T15:50:27.445Z,24.64
2023-03-20T15:52:54.740Z,24.64
2023-03-20T15:55:24.696Z,24.65
2023-03-20T15:57:56.335Z,24.64
2023-03-20T16:00:29.074Z,24.63
2023-03-20T16:02:56.817Z,24.64
2023-03-20T16:05:26.372Z,24.64
2023-03-20T16:07:53.661Z,24.64
2023-03-20T16:10:30.096Z,24.63
2023-03-20T16:12:58.990Z,24.64
2023-03-20T16:15:27.959Z,24.64
2023-03-20T16:17:57.462Z,24.64
2023-03-20T16:20:27.340Z,24.64
2023-03-20T16:22:59.495Z,24.64
2023-03-20T16:25:26.723Z,24.64
2023-03-20T16:27:55.320Z,24.63
2023-03-20T16:30:27.082Z,24.63
2023-03-20T16:32:59.751Z,24.63
2023-03-20T16:35:31.001Z,24.62
2023-03-20T16:37:59.815Z,24.61
2023-03-20T16:40:34.549Z,24.62
2023-03-20T16:43:07.383Z,24.62
2023-03-20T16:45:36.460Z,24.63
2023-03-20T16:48:23.895Z,24.68
2023-03-20T16:50:56.985Z,24.72
2023-03-20T16:53:24.956Z,24.74
2023-03-20T16:55:54.931Z,24.79
2023-03-20T16:58:25.802Z,24.84
2023-03-20T17:01:00.398Z,24.88
2023-03-20T17:03:29.420Z,24.93
2023-03-20T17:05:58.890Z,24.98
2023-03-20T17:08:34.643Z,25.03
2023-03-20T17:11:05.591Z,25.08
2023-03-20T17:13:32.551Z,25.14
2023-03-20T17:16:01.065Z,25.19
2023-03-20T17:18:28.819Z,25.24
2023-03-20T17:20:55.802Z,25.28
2023-03-20T17:23:23.106Z,25.34
2023-03-20T17:25:50.774Z,25.39
2023-03-20T17:28:20.990Z,25.44
2023-03-20T17:30:49.921Z,25.49
2023-03-20T17:33:21.299Z,25.55
2023-03-20T17:35:49.294Z,25.59
2023-03-20T17:38:19.240Z,25.63
2023-03-20T17:40:47.258Z,25.68
2023-03-20T17:43:15.304Z,25.73
2023-03-20T17:45:43.239Z,25.74
2023-03-20T17:48:15.898Z,25.78
2023-03-20T17:50:45.934Z,25.82
2023-03-20T17:53:16.318Z,25.86
2023-03-20T17:55:43.184Z,25.89
2023-03-20T17:58:14.251Z,25.91
2023-03-20T18:00:41.324Z,25.93
2023-03-20T18:03:08.313Z,25.96
2023-03-20T18:05:39.525Z,26.01
2023-03-20T18:08:10.785Z,26.03
2023-03-20T18:10:38.609Z,26.04
2023-03-20T18:13:05.693Z,26.04
2023-03-20T18:15:32.748Z,26.07
2023-03-20T18:17:59.666Z,26.07
2023-03-20T18:20:28.680Z,26.08
2023-03-20T18:22:55.839Z,26.09
2023-03-20T18:25:26.144Z,26.09
2023-03-20T18:27:53.254Z,26.11
2023-03-20T18:30:22.330Z,26.12
2023-03-20T18:32:49.511Z,26.11
2023-03-20T18:35:17.027Z,26.13
2023-03-20T18:37:44.556Z,26.12
2023-03-20T18:40:21.565Z,26.13
2023-03-20T18:42:49.896Z,26.12
2023-03-20T18:45:17.081Z,26.13
2023-03-20T18:47:44.129Z,26.11
2023-03-20T18:50:22.471Z,26.12
2023-03-20T18:52:49.694Z,26.12
2023-03-20T18:55:17.003Z,26.12
2023-03-20T18:57:44.122Z,26.09
2023-03-20T19:00:21.862Z,26.11
2023-03-20T19:02:49.230Z,26.09
2023-03-20T19:05:16.525Z,26.09
2023-03-20T19:07:44.914Z,26.08
2023-03-20T19:10:31.096Z,26.08
2023-03-20T19:12:58.116Z,26.07
2023-03-20T19:15:28.021Z,26.07
2023-03-20T19:17:55.710Z,26.07
2023-03-20T19:20:36.318Z,26.06
2023-03-20T19:23:05.102Z,26.05
2023-03-20T19:25:32.200Z,26.04
2023-03-20T19:27:59.924Z,26.04
2023-03-20T19:30:31.175Z,26.04
2023-03-20T19:32:57.937Z,26.03
2023-03-20T19:38:14.283Z,25.99
2023-03-20T19:40:43.456Z,25.98
2023-03-20T19:43:11.251Z,25.97
2023-03-20T19:45:43.026Z,25.98
2023-03-20T19:48:15.786Z,25.97
2023-03-20T19:50:44.027Z,25.98
2023-03-20T19:53:12.894Z,25.96
2023-03-20T19:55:40.740Z,25.95
2023-03-20T19:58:08.237Z,25.95
2023-03-20T20:03:27.361Z,25.93
2023-03-20T20:05:54.917Z,25.93
2023-03-20T20:08:44.241Z,25.93
2023-03-20T20:11:11.933Z,25.89
2023-03-20T20:13:51.181Z,25.90
2023-03-20T20:16:26.122Z,25.88
2023-03-20T20:18:54.442Z,25.88
2023-03-20T20:24:08.535Z,25.86
2023-03-20T20:26:40.455Z,25.84
2023-03-20T20:29:12.126Z,25.83
2023-03-20T20:31:39.037Z,25.82
2023-03-20T20:35:11.446Z,25.81
2023-03-20T20:39:41.347Z,25.76
2023-03-20T20:42:08.314Z,25.75
2023-03-20T20:44:35.498Z,25.75
2023-03-20T20:47:02.504Z,25.72
2023-03-20T20:49:31.147Z,25.71
2023-03-20T20:51:58.724Z,25.70
2023-03-20T20:54:27.713Z,25.68
2023-03-20T20:56:55.254Z,25.67
2023-03-20T20:59:22.729Z,25.64
2023-03-20T21:01:50.619Z,25.63
2023-03-20T21:04:18.095Z,25.61
2023-03-20T21:09:34.077Z,25.58
2023-03-20T21:12:00.997Z,25.58
2023-03-20T21:14:28.032Z,25.56
2023-03-20T21:17:01.317Z,25.56
2023-03-20T21:19:29.554Z,25.54
2023-03-20T21:21:57.888Z,25.54
2023-03-20T21:24:34.337Z,25.53
2023-03-20T21:27:02.130Z,25.51
2023-03-20T21:29:29.129Z,25.50
2023-03-20T21:31:56.113Z,25.47
2023-03-20T21:34:23.039Z,25.44
2023-03-20T21:36:51.429Z,25.41
2023-03-20T21:39:20.366Z,25.39
2023-03-20T21:41:47.505Z,25.36
2023-03-20T21:44:19.767Z,25.30
2023-03-20T21:47:58.331Z,25.27
2023-03-20T21:50:37.088Z,25.24
2023-03-20T21:58:50.979Z,25.15
2023-03-20T22:07:28.757Z,25.10
2023-03-20T22:15:33.735Z,25.11
2023-03-20T22:21:16.052Z,25.07
2023-03-20T22:26:58.707Z,25.04
2023-03-20T22:29:41.844Z,25.00
2023-03-20T22:38:21.889Z,24.97
2023-03-20T22:40:57.495Z,25.00
2023-03-20T22:46:07.669Z,25.01
2023-03-20T22:48:37.229Z,25.01
2023-03-20T22:51:05.181Z,25.00
2023-03-20T22:53:32.420Z,24.99
2023-03-20T22:56:00.167Z,25.00
2023-03-20T22:58:27.103Z,24.99
2023-03-20T23:00:56.487Z,24.98
2023-03-20T23:03:38.100Z,24.97
2023-03-20T23:06:08.325Z,24.96
2023-03-20T23:08:42.396Z,24.97
2023-03-20T23:11:15.633Z,24.97
2023-03-20T23:13:42.652Z,24.95
2023-03-20T23:16:11.527Z,24.95
2023-03-20T23:18:41.256Z,24.94
2023-03-20T23:21:08.895Z,24.96
2023-03-20T23:23:35.971Z,24.94
2023-03-20T23:26:05.341Z,24.94
2023-03-20T23:28:32.776Z,24.91
2023-03-20T23:31:10.518Z,24.89
2023-03-20T23:33:39.405Z,24.90
2023-03-20T23:36:21.514Z,24.88
2023-03-20T23:38:52.207Z,24.87
2023-03-20T23:41:19.166Z,24.88
2023-03-20T23:43:46.014Z,24.86
2023-03-20T23:46:12.961Z,24.88
2023-03-20T23:48:41.557Z,24.88
2023-03-20T23:51:08.878Z,24.85
2023-03-20T23:53:35.928Z,24.84
2023-03-20T23:56:03.246Z,24.85
2023-03-20T23:58:30.706Z,24.82
